createdAt,value
2019-06-20T00:04:40.956Z,16.40
2019-06-20T00:09:45.412Z,16.30
2019-06-20T00:14:49.728Z,16.30
2019-06-20T00:19:55.067Z,16.20
2019-06-20T00:25:02.798Z,16.20
2019-06-20T00:30:06.102Z,16.20
2019-06-20T00:35:10.997Z,16.30
2019-06-20T00:40:15.499Z,16.30
2019-06-20T00:45:18.791Z,16.40
2019-06-20T00:50:23.316Z,16.40
2019-06-20T00:55:26.779Z,16.30
2019-06-20T01:00:32.504Z,16.30
2019-06-20T01:05:37.222Z,16.20
2019-06-20T01:10:41.637Z,16.10
2019-06-20T01:15:46.033Z,16.00
2019-06-20T01:20:50.204Z,15.80
2019-06-20T01:25:54.613Z,15.80
2019-06-20T01:31:01.170Z,15.70
2019-06-20T01:36:05.903Z,15.70
2019-06-20T01:41:10.121Z,15.60
2019-06-20T01:46:14.717Z,15.60
2019-06-20T01:51:18.417Z,15.60
2019-06-20T01:56:24.231Z,15.60
2019-06-20T02:01:28.459Z,15.50
2019-06-20T02:06:36.329Z,15.50
2019-06-20T02:11:40.469Z,15.40
2019-06-20T02:16:47.520Z,15.40
2019-06-20T02:21:51.713Z,15.40
2019-06-20T02:26:56.359Z,15.40
2019-06-20T02:32:03.816Z,15.40
2019-06-20T02:37:10.372Z,15.40
2019-06-20T02:42:16.797Z,15.40
2019-06-20T02:47:21.201Z,15.30
2019-06-20T02:52:28.953Z,15.30
2019-06-20T02:57:33.146Z,15.30
2019-06-20T03:02:37.537Z,15.30
2019-06-20T03:07:43.004Z,15.40
2019-06-20T03:12:47.452Z,15.50
2019-06-20T03:18:14.521Z,15.50
2019-06-20T03:23:19.250Z,15.60
2019-06-20T03:28:25.984Z,15.60
2019-06-20T03:33:30.460Z,15.70
2019-06-20T03:38:34.788Z,15.80
2019-06-20T03:43:38.930Z,15.90
2019-06-20T03:48:46.194Z,16.00
2019-06-20T03:53:50.609Z,16.10
2019-06-20T03:58:54.794Z,16.20
2019-06-20T04:03:58.967Z,16.20
2019-06-20T04:09:03.534Z,16.30
2019-06-20T04:14:06.671Z,16.40
2019-06-20T04:19:10.798Z,16.50
2019-06-20T04:24:14.922Z,16.60
2019-06-20T04:29:19.225Z,16.60
2019-06-20T04:34:23.334Z,16.70
2019-06-20T04:39:27.618Z,16.90
2019-06-20T04:44:32.042Z,16.90
2019-06-20T04:49:36.720Z,16.90
2019-06-20T04:54:41.182Z,17.00
2019-06-20T04:59:44.565Z,17.00
2019-06-20T05:04:48.613Z,17.20
2019-06-20T05:09:54.003Z,17.30
2019-06-20T05:14:58.098Z,17.30
2019-06-20T05:20:02.183Z,17.30
2019-06-20T05:25:06.927Z,17.30
2019-06-20T05:30:11.410Z,17.40
2019-06-20T05:35:14.752Z,17.50
2019-06-20T05:40:19.254Z,17.60
2019-06-20T05:45:22.423Z,17.80
2019-06-20T05:50:26.660Z,17.80
2019-06-20T05:55:31.079Z,17.90
2019-06-20T06:00:36.097Z,17.90
2019-06-20T06:05:40.335Z,18.00
2019-06-20T06:10:44.546Z,18.10
2019-06-20T06:15:48.652Z,18.20
2019-06-20T06:20:53.080Z,18.30
2019-06-20T06:25:58.409Z,18.60
2019-06-20T06:31:02.543Z,19.50
2019-06-20T06:36:06.688Z,20.20
2019-06-20T06:41:11.031Z,20.70
2019-06-20T06:46:15.250Z,22.20
2019-06-20T06:51:19.436Z,23.50
2019-06-20T06:56:23.591Z,24.70
2019-06-20T07:01:27.676Z,25.20
2019-06-20T07:06:31.839Z,25.00
2019-06-20T07:11:36.079Z,25.20
2019-06-20T07:16:40.165Z,25.40
2019-06-20T07:21:44.230Z,25.70
2019-06-20T07:26:48.324Z,25.30
2019-06-20T07:31:52.741Z,24.60
2019-06-20T07:36:57.351Z,25.20
2019-06-20T07:42:01.612Z,26.30
2019-06-20T07:47:17.205Z,25.20
2019-06-20T07:52:14.859Z,24.40
2019-06-20T07:57:19.010Z,23.90
2019-06-20T08:02:23.431Z,23.70
2019-06-20T08:07:28.038Z,23.40
2019-06-20T08:12:33.814Z,23.20
2019-06-20T08:17:37.959Z,23.00
2019-06-20T08:22:47.244Z,22.90
2019-06-20T08:27:51.818Z,22.80
2019-06-20T08:32:59.144Z,22.50
2019-06-20T08:38:05.790Z,22.20
2019-06-20T08:43:10.926Z,22.30
2019-06-20T08:48:17.836Z,22.60
2019-06-20T08:53:26.156Z,22.90
2019-06-20T08:58:36.096Z,23.00
2019-06-20T09:03:40.223Z,24.00
2019-06-20T09:08:44.617Z,25.60
2019-06-20T09:13:49.038Z,27.20
2019-06-20T09:18:54.873Z,28.50
2019-06-20T09:23:59.942Z,29.60
2019-06-20T09:29:04.471Z,29.90
2019-06-20T09:34:08.957Z,30.30
2019-06-20T09:39:13.167Z,30.80
2019-06-20T09:44:18.231Z,30.30
2019-06-20T09:49:25.026Z,30.60
2019-06-20T09:54:30.933Z,29.90
2019-06-20T09:59:35.857Z,28.80
2019-06-20T10:04:43.245Z,28.90
2019-06-20T10:09:48.233Z,29.70
2019-06-20T10:14:54.247Z,29.90
2019-06-20T10:19:59.059Z,30.00
2019-06-20T10:25:05.870Z,30.80
2019-06-20T10:30:14.268Z,31.50
2019-06-20T10:35:16.129Z,30.40
2019-06-20T10:40:21.655Z,29.40
2019-06-20T10:45:27.127Z,28.40
2019-06-20T10:50:31.301Z,27.50
2019-06-20T10:55:34.484Z,27.00
2019-06-20T11:00:40.042Z,26.60
2019-06-20T11:05:45.542Z,26.80
2019-06-20T11:10:49.789Z,26.80
2019-06-20T11:15:54.222Z,26.50
2019-06-20T11:20:58.644Z,26.80
2019-06-20T11:26:02.969Z,26.90
2019-06-20T11:31:07.075Z,27.20
2019-06-20T11:36:11.499Z,27.10
2019-06-20T11:41:16.131Z,26.80
2019-06-20T11:46:20.271Z,26.40
2019-06-20T11:51:23.371Z,26.20
2019-06-20T11:56:27.562Z,27.00
2019-06-20T12:01:33.183Z,27.10
2019-06-20T12:06:36.624Z,27.10
2019-06-20T12:11:40.710Z,27.40
2019-06-20T12:16:44.938Z,27.00
2019-06-20T12:21:50.358Z,26.80
2019-06-20T12:26:54.459Z,26.60
2019-06-20T12:31:59.178Z,26.60
2019-06-20T12:37:03.447Z,26.40
2019-06-20T12:42:07.843Z,26.40
2019-06-20T12:47:12.405Z,26.30
2019-06-20T12:52:16.562Z,26.30
2019-06-20T12:57:20.270Z,26.30
2019-06-20T13:02:24.444Z,26.30
2019-06-20T13:07:29.620Z,26.50
2019-06-20T13:12:35.984Z,26.70
2019-06-20T13:17:41.994Z,26.90
2019-06-20T13:22:46.849Z,27.10
2019-06-20T13:27:51.086Z,27.50
2019-06-20T13:32:56.826Z,27.40
2019-06-20T13:38:01.847Z,27.30
2019-06-20T13:43:06.859Z,27.00
2019-06-20T13:48:11.372Z,27.00
2019-06-20T13:53:16.438Z,27.10
2019-06-20T13:58:20.653Z,27.00
2019-06-20T14:03:24.839Z,26.80
2019-06-20T14:08:29.306Z,26.70
2019-06-20T14:13:33.970Z,26.50
2019-06-20T14:18:38.326Z,26.30
2019-06-20T14:23:46.187Z,26.20
2019-06-20T14:28:51.054Z,26.20
2019-06-20T14:33:55.564Z,26.30
2019-06-20T14:38:59.895Z,26.40
2019-06-20T14:44:03.870Z,26.30
2019-06-20T14:49:06.999Z,26.50
2019-06-20T14:54:11.072Z,26.30
2019-06-20T14:59:14.500Z,26.10
2019-06-20T15:04:18.722Z,26.10
2019-06-20T15:09:21.849Z,26.30
2019-06-20T15:14:26.212Z,26.40
2019-06-20T15:19:31.201Z,26.20
2019-06-20T15:24:35.273Z,25.90
2019-06-20T15:29:38.493Z,25.50
2019-06-20T15:34:43.784Z,25.30
2019-06-20T15:39:48.521Z,25.10
2019-06-20T15:44:53.840Z,24.90
2019-06-20T15:49:56.836Z,24.60
2019-06-20T15:55:01.356Z,24.40
2019-06-20T16:00:05.916Z,24.20
2019-06-20T16:05:10.793Z,23.90
2019-06-20T16:10:15.318Z,23.70
2019-06-20T16:15:24.312Z,23.60
2019-06-20T16:20:28.449Z,23.40
2019-06-20T16:25:32.529Z,23.40
2019-06-20T16:30:36.668Z,23.30
2019-06-20T16:35:40.227Z,23.30
2019-06-20T16:40:48.255Z,23.30
2019-06-20T16:45:52.303Z,23.30
2019-06-20T16:50:56.687Z,23.20
2019-06-20T16:55:59.803Z,23.00
2019-06-20T17:01:04.021Z,23.00
2019-06-20T17:06:07.464Z,23.10
2019-06-20T17:11:11.855Z,23.10
2019-06-20T17:16:16.344Z,23.10
2019-06-20T17:21:20.603Z,23.10
2019-06-20T17:26:23.775Z,23.00
2019-06-20T17:31:28.025Z,22.90
2019-06-20T17:36:31.186Z,22.70
2019-06-20T17:41:35.355Z,22.40
2019-06-20T17:46:40.379Z,22.10
2019-06-20T17:51:44.748Z,21.90
2019-06-20T17:56:48.125Z,21.70
2019-06-20T18:01:52.241Z,21.60
2019-06-20T18:06:58.025Z,21.40
2019-06-20T18:12:03.182Z,21.30
2019-06-20T18:17:07.669Z,21.20
2019-06-20T18:22:11.728Z,21.10
2019-06-20T18:27:15.873Z,20.90
2019-06-20T18:32:20.013Z,20.80
2019-06-20T18:37:31.282Z,20.70
2019-06-20T18:42:31.459Z,20.60
2019-06-20T18:47:35.871Z,20.50
2019-06-20T18:52:51.774Z,20.30
2019-06-20T18:57:46.697Z,20.20
2019-06-20T19:02:52.576Z,20.10
2019-06-20T19:07:56.769Z,20.00
2019-06-20T19:13:13.064Z,19.90
2019-06-20T19:18:18.611Z,19.80
2019-06-20T19:23:22.999Z,19.70
2019-06-20T19:28:26.353Z,19.50
2019-06-20T19:33:30.528Z,19.40
2019-06-20T19:38:35.082Z,19.10
2019-06-20T19:43:39.347Z,19.00
2019-06-20T19:48:43.801Z,18.90
2019-06-20T19:53:47.993Z,18.80
2019-06-20T19:58:52.507Z,18.80
2019-06-20T20:03:55.627Z,18.70
2019-06-20T20:08:59.832Z,18.60
2019-06-20T20:14:03.970Z,18.50
2019-06-20T20:19:08.394Z,18.50
2019-06-20T20:24:11.546Z,18.50
2019-06-20T20:29:15.726Z,18.40
2019-06-20T20:34:22.813Z,18.30
2019-06-20T20:39:27.038Z,18.20
2019-06-20T20:44:33.337Z,18.20
2019-06-20T20:49:37.533Z,18.10
2019-06-20T20:54:42.044Z,18.20
2019-06-20T20:59:45.064Z,18.10
2019-06-20T21:04:49.036Z,18.20
2019-06-20T21:09:53.340Z,18.10
2019-06-20T21:14:57.540Z,18.10
2019-06-20T21:20:01.908Z,18.00
2019-06-20T21:25:05.207Z,17.90
2019-06-20T21:30:09.928Z,17.60
2019-06-20T21:35:14.620Z,17.50
2019-06-20T21:40:20.661Z,17.20
2019-06-20T21:45:24.770Z,17.10
2019-06-20T21:50:28.977Z,17.00
2019-06-20T21:55:33.072Z,17.00
2019-06-20T22:00:43.434Z,16.90
2019-06-20T22:05:47.887Z,16.80
2019-06-20T22:10:51.968Z,16.80
2019-06-20T22:15:56.072Z,16.80
2019-06-20T22:27:04.476Z,16.90
2019-06-20T22:32:07.964Z,17.00
2019-06-20T22:37:12.348Z,17.00
2019-06-20T22:42:15.806Z,17.10
2019-06-20T22:47:19.901Z,17.10
2019-06-20T22:52:24.029Z,17.10
2019-06-20T22:57:28.257Z,17.00
2019-06-20T23:02:32.325Z,17.00
2019-06-20T23:13:39.693Z,16.80
2019-06-20T23:18:43.840Z,16.80
2019-06-20T23:23:48.058Z,16.70
2019-06-20T23:29:11.368Z,16.70
2019-06-20T23:34:15.575Z,16.60
2019-06-20T23:39:19.753Z,16.60
2019-06-20T23:44:23.896Z,16.50
2019-06-20T23:49:28.620Z,16.40
2019-06-20T23:54:33.127Z,16.20
2019-06-20T23:59:36.631Z,16.10
